sensor_id;sensor_type;location;lat;lon;timestamp;P1;durP1;ratioP1;P2;durP2;ratioP2
68108;SDS011;54893;49.864;19.084;2023-04-25T00:02:26;44.30;;;18.33;;
68108;SDS011;54893;49.864;19.084;2023-04-25T00:07:26;44.23;;;17.63;;
68108;SDS011;54893;49.864;19.084;2023-04-25T00:12:26;47.07;;;18.73;;
68108;SDS011;54893;49.864;19.084;2023-04-25T00:17:28;47.93;;;18.63;;
68108;SDS011;54893;49.864;19.084;2023-04-25T00:22:29;46.35;;;19.55;;
68108;SDS011;54893;49.864;19.084;2023-04-25T00:27:29;47.07;;;20.37;;
68108;SDS011;54893;49.864;19.084;2023-04-25T00:32:30;49.83;;;22.17;;
68108;SDS011;54893;49.864;19.084;2023-04-25T00:37:30;49.20;;;21.60;;
68108;SDS011;54893;49.864;19.084;2023-04-25T00:42:31;46.50;;;19.30;;
68108;SDS011;54893;49.864;19.084;2023-04-25T00:47:31;40.90;;;17.50;;
68108;SDS011;54893;49.864;19.084;2023-04-25T00:52:33;50.72;;;24.20;;
68108;SDS011;54893;49.864;19.084;2023-04-25T00:57:34;42.50;;;17.27;;
68108;SDS011;54893;49.864;19.084;2023-04-25T01:02:34;40.50;;;17.70;;
68108;SDS011;54893;49.864;19.084;2023-04-25T01:07:35;40.08;;;14.35;;
68108;SDS011;54893;49.864;19.084;2023-04-25T01:12:36;36.10;;;15.80;;
68108;SDS011;54893;49.864;19.084;2023-04-25T01:17:37;46.47;;;23.83;;
68108;SDS011;54893;49.864;19.084;2023-04-25T01:22:37;46.50;;;28.50;;
68108;SDS011;54893;49.864;19.084;2023-04-25T01:27:38;23.60;;;12.97;;
68108;SDS011;54893;49.864;19.084;2023-04-25T01:32:39;24.30;;;12.80;;
68108;SDS011;54893;49.864;19.084;2023-04-25T01:37:40;24.80;;;12.85;;
68108;SDS011;54893;49.864;19.084;2023-04-25T01:42:42;24.33;;;12.00;;
68108;SDS011;54893;49.864;19.084;2023-04-25T01:47:43;21.13;;;10.40;;
68108;SDS011;54893;49.864;19.084;2023-04-25T01:52:48;24.75;;;12.60;;
68108;SDS011;54893;49.864;19.084;2023-04-25T01:57:49;21.33;;;12.00;;
68108;SDS011;54893;49.864;19.084;2023-04-25T02:02:49;21.20;;;10.00;;
68108;SDS011;54893;49.864;19.084;2023-04-25T02:07:50;21.95;;;10.38;;
68108;SDS011;54893;49.864;19.084;2023-04-25T02:12:50;23.50;;;16.97;;
68108;SDS011;54893;49.864;19.084;2023-04-25T02:17:51;26.17;;;14.13;;
68108;SDS011;54893;49.864;19.084;2023-04-25T02:22:54;21.17;;;13.13;;
68108;SDS011;54893;49.864;19.084;2023-04-25T02:27:54;18.87;;;11.20;;
68108;SDS011;54893;49.864;19.084;2023-04-25T02:32:55;13.83;;;8.20;;
68108;SDS011;54893;49.864;19.084;2023-04-25T02:37:56;16.00;;;8.37;;
68108;SDS011;54893;49.864;19.084;2023-04-25T02:42:56;16.27;;;9.20;;
68108;SDS011;54893;49.864;19.084;2023-04-25T02:47:57;13.87;;;8.23;;
68108;SDS011;54893;49.864;19.084;2023-04-25T02:52:57;16.30;;;8.50;;
68108;SDS011;54893;49.864;19.084;2023-04-25T02:57:57;12.97;;;7.20;;
68108;SDS011;54893;49.864;19.084;2023-04-25T03:02:58;14.23;;;8.13;;
68108;SDS011;54893;49.864;19.084;2023-04-25T03:07:58;14.47;;;7.80;;
68108;SDS011;54893;49.864;19.084;2023-04-25T03:12:58;13.17;;;7.40;;
68108;SDS011;54893;49.864;19.084;2023-04-25T03:17:59;15.00;;;8.27;;
68108;SDS011;54893;49.864;19.084;2023-04-25T03:22:59;16.40;;;9.37;;
68108;SDS011;54893;49.864;19.084;2023-04-25T03:28:00;38.87;;;20.33;;
68108;SDS011;54893;49.864;19.084;2023-04-25T03:33:00;34.40;;;19.80;;
68108;SDS011;54893;49.864;19.084;2023-04-25T03:38:00;25.70;;;13.00;;
68108;SDS011;54893;49.864;19.084;2023-04-25T03:43:01;19.87;;;10.17;;
68108;SDS011;54893;49.864;19.084;2023-04-25T03:48:01;19.57;;;11.43;;
68108;SDS011;54893;49.864;19.084;2023-04-25T03:53:01;20.90;;;11.50;;
68108;SDS011;54893;49.864;19.084;2023-04-25T03:58:02;21.60;;;11.90;;
68108;SDS011;54893;49.864;19.084;2023-04-25T04:03:02;21.88;;;13.52;;
68108;SDS011;54893;49.864;19.084;2023-04-25T04:08:02;18.97;;;9.93;;
68108;SDS011;54893;49.864;19.084;2023-04-25T04:13:03;26.83;;;16.60;;
68108;SDS011;54893;49.864;19.084;2023-04-25T04:18:03;22.13;;;12.03;;
68108;SDS011;54893;49.864;19.084;2023-04-25T04:23:04;25.20;;;14.73;;
68108;SDS011;54893;49.864;19.084;2023-04-25T04:28:05;25.63;;;13.17;;
68108;SDS011;54893;49.864;19.084;2023-04-25T04:33:07;32.95;;;18.88;;
68108;SDS011;54893;49.864;19.084;2023-04-25T04:38:07;24.67;;;14.30;;
68108;SDS011;54893;49.864;19.084;2023-04-25T04:43:07;23.20;;;12.23;;
68108;SDS011;54893;49.864;19.084;2023-04-25T04:48:10;21.50;;;10.73;;
68108;SDS011;54893;49.864;19.084;2023-04-25T04:53:11;15.93;;;7.47;;
68108;SDS011;54893;49.864;19.084;2023-04-25T04:58:12;17.93;;;9.90;;
68108;SDS011;54893;49.864;19.084;2023-04-25T05:03:12;16.33;;;9.17;;
68108;SDS011;54893;49.864;19.084;2023-04-25T05:08:13;18.67;;;9.30;;
68108;SDS011;54893;49.864;19.084;2023-04-25T05:13:13;19.53;;;11.23;;
68108;SDS011;54893;49.864;19.084;2023-04-25T05:18:13;22.77;;;13.00;;
68108;SDS011;54893;49.864;19.084;2023-04-25T05:23:14;21.53;;;11.97;;
68108;SDS011;54893;49.864;19.084;2023-04-25T05:28:14;21.15;;;9.85;;
68108;SDS011;54893;49.864;19.084;2023-04-25T05:33:14;19.90;;;10.03;;
68108;SDS011;54893;49.864;19.084;2023-04-25T05:38:15;20.70;;;10.25;;
68108;SDS011;54893;49.864;19.084;2023-04-25T05:43:15;19.70;;;10.60;;
68108;SDS011;54893;49.864;19.084;2023-04-25T05:48:16;20.50;;;10.40;;
68108;SDS011;54893;49.864;19.084;2023-04-25T05:53:16;21.00;;;9.90;;
68108;SDS011;54893;49.864;19.084;2023-04-25T05:58:16;19.05;;;10.13;;
68108;SDS011;54893;49.864;19.084;2023-04-25T06:03:17;27.43;;;14.30;;
68108;SDS011;54893;49.864;19.084;2023-04-25T06:08:17;24.17;;;13.65;;
68108;SDS011;54893;49.864;19.084;2023-04-25T06:13:17;16.80;;;10.50;;
68108;SDS011;54893;49.864;19.084;2023-04-25T06:18:17;18.03;;;10.37;;
68108;SDS011;54893;49.864;19.084;2023-04-25T06:23:18;17.80;;;9.55;;
68108;SDS011;54893;49.864;19.084;2023-04-25T06:28:18;13.23;;;6.73;;
68108;SDS011;54893;49.864;19.084;2023-04-25T06:33:19;13.47;;;7.17;;
68108;SDS011;54893;49.864;19.084;2023-04-25T06:38:20;12.80;;;7.18;;
68108;SDS011;54893;49.864;19.084;2023-04-25T06:43:20;12.85;;;6.35;;
68108;SDS011;54893;49.864;19.084;2023-04-25T06:48:20;13.87;;;7.63;;
68108;SDS011;54893;49.864;19.084;2023-04-25T06:53:21;13.10;;;6.70;;
68108;SDS011;54893;49.864;19.084;2023-04-25T06:58:21;11.83;;;7.40;;
68108;SDS011;54893;49.864;19.084;2023-04-25T07:03:22;13.65;;;6.53;;
68108;SDS011;54893;49.864;19.084;2023-04-25T07:08:22;11.77;;;6.10;;
68108;SDS011;54893;49.864;19.084;2023-04-25T07:13:22;10.38;;;4.75;;
68108;SDS011;54893;49.864;19.084;2023-04-25T07:18:23;12.02;;;5.88;;
68108;SDS011;54893;49.864;19.084;2023-04-25T07:23:23;12.63;;;6.90;;
68108;SDS011;54893;49.864;19.084;2023-04-25T07:28:24;11.47;;;6.53;;
68108;SDS011;54893;49.864;19.084;2023-04-25T07:33:24;13.30;;;6.30;;
68108;SDS011;54893;49.864;19.084;2023-04-25T07:38:24;14.23;;;6.60;;
68108;SDS011;54893;49.864;19.084;2023-04-25T07:43:25;16.37;;;7.40;;
68108;SDS011;54893;49.864;19.084;2023-04-25T07:48:26;12.40;;;5.72;;
68108;SDS011;54893;49.864;19.084;2023-04-25T07:53:26;15.00;;;6.17;;
68108;SDS011;54893;49.864;19.084;2023-04-25T07:58:26;16.37;;;7.43;;
68108;SDS011;54893;49.864;19.084;2023-04-25T08:03:27;18.03;;;8.37;;
68108;SDS011;54893;49.864;19.084;2023-04-25T08:08:27;13.60;;;6.33;;
68108;SDS011;54893;49.864;19.084;2023-04-25T08:13:27;12.13;;;6.43;;
68108;SDS011;54893;49.864;19.084;2023-04-25T08:18:28;13.83;;;8.57;;
68108;SDS011;54893;49.864;19.084;2023-04-25T08:23:28;12.20;;;5.83;;
68108;SDS011;54893;49.864;19.084;2023-04-25T08:28:28;10.77;;;6.65;;
68108;SDS011;54893;49.864;19.084;2023-04-25T08:33:29;11.50;;;6.30;;
68108;SDS011;54893;49.864;19.084;2023-04-25T08:38:30;13.70;;;6.72;;
68108;SDS011;54893;49.864;19.084;2023-04-25T08:43:30;11.23;;;5.20;;
68108;SDS011;54893;49.864;19.084;2023-04-25T08:48:32;10.43;;;5.10;;
68108;SDS011;54893;49.864;19.084;2023-04-25T08:53:34;10.70;;;5.97;;
68108;SDS011;54893;49.864;19.084;2023-04-25T08:58:35;10.53;;;5.07;;
68108;SDS011;54893;49.864;19.084;2023-04-25T09:03:36;10.27;;;5.70;;
68108;SDS011;54893;49.864;19.084;2023-04-25T09:08:37;9.07;;;4.33;;
68108;SDS011;54893;49.864;19.084;2023-04-25T09:13:37;10.93;;;6.13;;
68108;SDS011;54893;49.864;19.084;2023-04-25T09:18:38;10.40;;;6.93;;
68108;SDS011;54893;49.864;19.084;2023-04-25T09:23:43;13.40;;;5.40;;
68108;SDS011;54893;49.864;19.084;2023-04-25T09:28:47;11.70;;;6.60;;
68108;SDS011;54893;49.864;19.084;2023-04-25T09:33:48;9.73;;;5.17;;
68108;SDS011;54893;49.864;19.084;2023-04-25T09:38:48;10.87;;;5.53;;
68108;SDS011;54893;49.864;19.084;2023-04-25T09:43:48;9.88;;;5.88;;
68108;SDS011;54893;49.864;19.084;2023-04-25T09:48:50;18.65;;;8.38;;
68108;SDS011;54893;49.864;19.084;2023-04-25T09:53:51;13.90;;;5.67;;
68108;SDS011;54893;49.864;19.084;2023-04-25T09:58:51;16.77;;;8.40;;
68108;SDS011;54893;49.864;19.084;2023-04-25T10:03:53;16.80;;;8.30;;
68108;SDS011;54893;49.864;19.084;2023-04-25T10:08:56;11.13;;;6.20;;
68108;SDS011;54893;49.864;19.084;2023-04-25T10:13:57;11.23;;;6.10;;
68108;SDS011;54893;49.864;19.084;2023-04-25T10:18:58;11.70;;;6.63;;
68108;SDS011;54893;49.864;19.084;2023-04-25T10:23:58;11.02;;;5.18;;
68108;SDS011;54893;49.864;19.084;2023-04-25T10:29:00;10.17;;;5.83;;
68108;SDS011;54893;49.864;19.084;2023-04-25T10:34:02;9.65;;;5.00;;
68108;SDS011;54893;49.864;19.084;2023-04-25T10:39:04;9.73;;;4.90;;
68108;SDS011;54893;49.864;19.084;2023-04-25T10:44:07;10.07;;;4.50;;
68108;SDS011;54893;49.864;19.084;2023-04-25T10:49:08;8.50;;;4.53;;
68108;SDS011;54893;49.864;19.084;2023-04-25T10:54:10;9.88;;;5.10;;
68108;SDS011;54893;49.864;19.084;2023-04-25T10:59:12;8.60;;;5.47;;
68108;SDS011;54893;49.864;19.084;2023-04-25T11:09:32;10.52;;;6.05;;
68108;SDS011;54893;49.864;19.084;2023-04-25T11:14:33;9.17;;;5.47;;
68108;SDS011;54893;49.864;19.084;2023-04-25T11:19:33;5.90;;;3.73;;
68108;SDS011;54893;49.864;19.084;2023-04-25T11:24:34;6.37;;;3.03;;
68108;SDS011;54893;49.864;19.084;2023-04-25T11:29:36;8.60;;;4.18;;
68108;SDS011;54893;49.864;19.084;2023-04-25T11:34:36;8.13;;;4.70;;
68108;SDS011;54893;49.864;19.084;2023-04-25T11:39:37;11.83;;;5.43;;
68108;SDS011;54893;49.864;19.084;2023-04-25T11:44:39;8.35;;;3.20;;
68108;SDS011;54893;49.864;19.084;2023-04-25T11:49:40;6.00;;;3.00;;
68108;SDS011;54893;49.864;19.084;2023-04-25T11:54:41;8.50;;;3.00;;
68108;SDS011;54893;49.864;19.084;2023-04-25T11:59:44;7.37;;;3.40;;
68108;SDS011;54893;49.864;19.084;2023-04-25T12:04:45;6.60;;;3.00;;
68108;SDS011;54893;49.864;19.084;2023-04-25T12:09:50;6.05;;;3.05;;
68108;SDS011;54893;49.864;19.084;2023-04-25T12:14:51;5.97;;;3.40;;
68108;SDS011;54893;49.864;19.084;2023-04-25T12:19:52;7.37;;;3.33;;
68108;SDS011;54893;49.864;19.084;2023-04-25T12:24:52;6.40;;;2.77;;
68108;SDS011;54893;49.864;19.084;2023-04-25T12:29:55;7.22;;;2.80;;
68108;SDS011;54893;49.864;19.084;2023-04-25T12:34:56;6.30;;;3.05;;
68108;SDS011;54893;49.864;19.084;2023-04-25T12:39:56;7.87;;;3.10;;
68108;SDS011;54893;49.864;19.084;2023-04-25T12:44:57;7.82;;;3.30;;
68108;SDS011;54893;49.864;19.084;2023-04-25T12:49:57;5.53;;;2.70;;
68108;SDS011;54893;49.864;19.084;2023-04-25T12:54:57;6.93;;;3.63;;
68108;SDS011;54893;49.864;19.084;2023-04-25T12:59:58;8.23;;;3.80;;
68108;SDS011;54893;49.864;19.084;2023-04-25T13:04:58;5.57;;;2.17;;
68108;SDS011;54893;49.864;19.084;2023-04-25T13:09:58;6.07;;;3.20;;
68108;SDS011;54893;49.864;19.084;2023-04-25T13:14:59;6.23;;;2.87;;
68108;SDS011;54893;49.864;19.084;2023-04-25T13:19:59;7.67;;;2.43;;
68108;SDS011;54893;49.864;19.084;2023-04-25T13:24:59;8.43;;;3.63;;
68108;SDS011;54893;49.864;19.084;2023-04-25T13:30:00;6.77;;;2.90;;
68108;SDS011;54893;49.864;19.084;2023-04-25T13:35:05;5.65;;;3.05;;
68108;SDS011;54893;49.864;19.084;2023-04-25T13:40:08;88.10;;;20.95;;
68108;SDS011;54893;49.864;19.084;2023-04-25T13:45:09;33.07;;;9.47;;
68108;SDS011;54893;49.864;19.084;2023-04-25T13:50:10;12.43;;;4.50;;
68108;SDS011;54893;49.864;19.084;2023-04-25T13:55:10;7.27;;;3.83;;
68108;SDS011;54893;49.864;19.084;2023-04-25T14:00:11;6.32;;;3.10;;
68108;SDS011;54893;49.864;19.084;2023-04-25T14:05:12;16.55;;;5.75;;
68108;SDS011;54893;49.864;19.084;2023-04-25T14:10:13;7.05;;;4.18;;
68108;SDS011;54893;49.864;19.084;2023-04-25T14:15:13;6.73;;;3.77;;
68108;SDS011;54893;49.864;19.084;2023-04-25T14:20:14;8.77;;;3.30;;
68108;SDS011;54893;49.864;19.084;2023-04-25T14:25:15;5.80;;;3.50;;
68108;SDS011;54893;49.864;19.084;2023-04-25T14:30:16;31.63;;;7.83;;
68108;SDS011;54893;49.864;19.084;2023-04-25T14:35:18;7.15;;;4.35;;
68108;SDS011;54893;49.864;19.084;2023-04-25T14:40:18;7.10;;;3.97;;
68108;SDS011;54893;49.864;19.084;2023-04-25T14:45:22;16.27;;;5.60;;
68108;SDS011;54893;49.864;19.084;2023-04-25T14:50:23;39.33;;;9.93;;
68108;SDS011;54893;49.864;19.084;2023-04-25T14:55:23;20.07;;;6.27;;
68108;SDS011;54893;49.864;19.084;2023-04-25T15:00:23;10.70;;;5.80;;
68108;SDS011;54893;49.864;19.084;2023-04-25T15:05:25;7.75;;;4.50;;
68108;SDS011;54893;49.864;19.084;2023-04-25T15:10:25;8.15;;;5.03;;
68108;SDS011;54893;49.864;19.084;2023-04-25T15:15:26;9.93;;;5.35;;
68108;SDS011;54893;49.864;19.084;2023-04-25T15:20:26;15.77;;;5.60;;
68108;SDS011;54893;49.864;19.084;2023-04-25T15:25:27;10.07;;;5.93;;
68108;SDS011;54893;49.864;19.084;2023-04-25T15:30:28;11.48;;;4.82;;
68108;SDS011;54893;49.864;19.084;2023-04-25T15:35:28;10.17;;;4.93;;
68108;SDS011;54893;49.864;19.084;2023-04-25T15:40:29;9.80;;;5.13;;
68108;SDS011;54893;49.864;19.084;2023-04-25T15:45:29;19.60;;;6.73;;
68108;SDS011;54893;49.864;19.084;2023-04-25T15:50:33;11.18;;;6.30;;
68108;SDS011;54893;49.864;19.084;2023-04-25T15:55:35;12.27;;;6.65;;
68108;SDS011;54893;49.864;19.084;2023-04-25T16:00:35;11.43;;;6.60;;
68108;SDS011;54893;49.864;19.084;2023-04-25T16:05:36;11.23;;;5.95;;
68108;SDS011;54893;49.864;19.084;2023-04-25T16:10:37;15.33;;;6.83;;
68108;SDS011;54893;49.864;19.084;2023-04-25T16:15:37;12.43;;;6.77;;
68108;SDS011;54893;49.864;19.084;2023-04-25T16:20:38;10.73;;;5.13;;
68108;SDS011;54893;49.864;19.084;2023-04-25T16:25:39;10.40;;;5.30;;
68108;SDS011;54893;49.864;19.084;2023-04-25T16:30:40;13.47;;;7.30;;
68108;SDS011;54893;49.864;19.084;2023-04-25T16:35:40;13.43;;;7.63;;
68108;SDS011;54893;49.864;19.084;2023-04-25T16:40:40;11.43;;;8.10;;
68108;SDS011;54893;49.864;19.084;2023-04-25T16:45:41;10.67;;;6.70;;
68108;SDS011;54893;49.864;19.084;2023-04-25T16:50:41;12.17;;;7.27;;
68108;SDS011;54893;49.864;19.084;2023-04-25T16:55:42;12.90;;;6.77;;
68108;SDS011;54893;49.864;19.084;2023-04-25T17:00:42;11.20;;;6.80;;
68108;SDS011;54893;49.864;19.084;2023-04-25T17:05:43;21.35;;;10.25;;
68108;SDS011;54893;49.864;19.084;2023-04-25T17:10:43;21.67;;;11.17;;
68108;SDS011;54893;49.864;19.084;2023-04-25T17:15:44;18.43;;;9.53;;
68108;SDS011;54893;49.864;19.084;2023-04-25T17:20:44;16.93;;;8.03;;
68108;SDS011;54893;49.864;19.084;2023-04-25T17:25:45;17.17;;;8.67;;
68108;SDS011;54893;49.864;19.084;2023-04-25T17:30:45;16.37;;;8.50;;
68108;SDS011;54893;49.864;19.084;2023-04-25T17:35:46;16.27;;;8.30;;
68108;SDS011;54893;49.864;19.084;2023-04-25T17:40:46;15.57;;;8.27;;
68108;SDS011;54893;49.864;19.084;2023-04-25T17:45:47;20.83;;;10.37;;
68108;SDS011;54893;49.864;19.084;2023-04-25T17:50:48;25.60;;;11.07;;
68108;SDS011;54893;49.864;19.084;2023-04-25T17:55:48;24.23;;;11.13;;
68108;SDS011;54893;49.864;19.084;2023-04-25T18:00:49;21.53;;;9.20;;
68108;SDS011;54893;49.864;19.084;2023-04-25T18:05:50;24.13;;;9.15;;
68108;SDS011;54893;49.864;19.084;2023-04-25T18:10:50;19.23;;;8.90;;
68108;SDS011;54893;49.864;19.084;2023-04-25T18:15:51;18.80;;;9.37;;
68108;SDS011;54893;49.864;19.084;2023-04-25T18:20:51;18.57;;;9.07;;
68108;SDS011;54893;49.864;19.084;2023-04-25T18:25:52;23.50;;;11.47;;
68108;SDS011;54893;49.864;19.084;2023-04-25T18:30:53;37.40;;;15.63;;
68108;SDS011;54893;49.864;19.084;2023-04-25T18:35:53;37.93;;;18.37;;
68108;SDS011;54893;49.864;19.084;2023-04-25T18:40:54;40.57;;;18.20;;
68108;SDS011;54893;49.864;19.084;2023-04-25T18:45:54;36.70;;;16.60;;
68108;SDS011;54893;49.864;19.084;2023-04-25T18:50:54;26.73;;;12.47;;
68108;SDS011;54893;49.864;19.084;2023-04-25T18:55:55;20.93;;;8.97;;
68108;SDS011;54893;49.864;19.084;2023-04-25T19:00:55;18.53;;;8.67;;
68108;SDS011;54893;49.864;19.084;2023-04-25T19:05:55;17.83;;;8.47;;
68108;SDS011;54893;49.864;19.084;2023-04-25T19:10:56;14.63;;;6.87;;
68108;SDS011;54893;49.864;19.084;2023-04-25T19:15:57;16.43;;;7.37;;
68108;SDS011;54893;49.864;19.084;2023-04-25T19:20:57;10.27;;;4.97;;
68108;SDS011;54893;49.864;19.084;2023-04-25T19:25:58;11.57;;;4.50;;
68108;SDS011;54893;49.864;19.084;2023-04-25T19:30:58;11.97;;;5.50;;
68108;SDS011;54893;49.864;19.084;2023-04-25T19:35:59;14.27;;;6.33;;
68108;SDS011;54893;49.864;19.084;2023-04-25T19:40:59;15.23;;;6.67;;
68108;SDS011;54893;49.864;19.084;2023-04-25T19:46:00;15.30;;;6.50;;
68108;SDS011;54893;49.864;19.084;2023-04-25T19:51:00;15.47;;;5.27;;
68108;SDS011;54893;49.864;19.084;2023-04-25T19:56:01;12.27;;;5.37;;
68108;SDS011;54893;49.864;19.084;2023-04-25T20:01:01;17.57;;;6.70;;
68108;SDS011;54893;49.864;19.084;2023-04-25T20:06:03;16.80;;;7.45;;
68108;SDS011;54893;49.864;19.084;2023-04-25T20:11:03;19.77;;;7.63;;
68108;SDS011;54893;49.864;19.084;2023-04-25T20:16:04;18.87;;;6.93;;
68108;SDS011;54893;49.864;19.084;2023-04-25T20:21:04;17.30;;;8.00;;
68108;SDS011;54893;49.864;19.084;2023-04-25T20:26:06;13.82;;;6.40;;
68108;SDS011;54893;49.864;19.084;2023-04-25T20:31:08;16.17;;;6.80;;
68108;SDS011;54893;49.864;19.084;2023-04-25T20:36:09;14.70;;;7.63;;
68108;SDS011;54893;49.864;19.084;2023-04-25T20:41:10;14.93;;;7.43;;
68108;SDS011;54893;49.864;19.084;2023-04-25T20:46:11;17.00;;;7.05;;
68108;SDS011;54893;49.864;19.084;2023-04-25T20:51:13;17.98;;;7.72;;
68108;SDS011;54893;49.864;19.084;2023-04-25T20:56:14;15.52;;;7.28;;
68108;SDS011;54893;49.864;19.084;2023-04-25T21:01:15;16.50;;;7.55;;
68108;SDS011;54893;49.864;19.084;2023-04-25T21:06:16;13.67;;;6.60;;
68108;SDS011;54893;49.864;19.084;2023-04-25T21:11:16;14.80;;;6.00;;
68108;SDS011;54893;49.864;19.084;2023-04-25T21:16:18;16.17;;;7.78;;
68108;SDS011;54893;49.864;19.084;2023-04-25T21:21:18;15.50;;;6.63;;
68108;SDS011;54893;49.864;19.084;2023-04-25T21:26:19;14.97;;;7.00;;
68108;SDS011;54893;49.864;19.084;2023-04-25T21:31:20;14.77;;;7.23;;
68108;SDS011;54893;49.864;19.084;2023-04-25T21:36:21;13.88;;;5.63;;
68108;SDS011;54893;49.864;19.084;2023-04-25T21:41:21;9.40;;;4.00;;
68108;SDS011;54893;49.864;19.084;2023-04-25T21:46:22;10.13;;;4.23;;
68108;SDS011;54893;49.864;19.084;2023-04-25T21:51:24;11.65;;;5.25;;
68108;SDS011;54893;49.864;19.084;2023-04-25T21:56:24;12.47;;;5.73;;
68108;SDS011;54893;49.864;19.084;2023-04-25T22:01:25;12.73;;;5.90;;
68108;SDS011;54893;49.864;19.084;2023-04-25T22:06:26;14.80;;;5.63;;
68108;SDS011;54893;49.864;19.084;2023-04-25T22:11:27;11.03;;;3.80;;
68108;SDS011;54893;49.864;19.084;2023-04-25T22:16:28;11.37;;;5.77;;
68108;SDS011;54893;49.864;19.084;2023-04-25T22:21:28;11.67;;;5.67;;
68108;SDS011;54893;49.864;19.084;2023-04-25T22:26:29;11.27;;;3.95;;
68108;SDS011;54893;49.864;19.084;2023-04-25T22:31:29;9.90;;;4.87;;
68108;SDS011;54893;49.864;19.084;2023-04-25T22:36:30;14.00;;;4.00;;
68108;SDS011;54893;49.864;19.084;2023-04-25T22:41:30;9.87;;;3.60;;
68108;SDS011;54893;49.864;19.084;2023-04-25T22:46:31;9.93;;;3.47;;
68108;SDS011;54893;49.864;19.084;2023-04-25T22:51:31;8.27;;;3.00;;
68108;SDS011;54893;49.864;19.084;2023-04-25T22:56:32;8.20;;;2.90;;
68108;SDS011;54893;49.864;19.084;2023-04-25T23:01:32;15.10;;;3.88;;
68108;SDS011;54893;49.864;19.084;2023-04-25T23:06:33;13.93;;;3.55;;
68108;SDS011;54893;49.864;19.084;2023-04-25T23:11:33;12.10;;;3.70;;
68108;SDS011;54893;49.864;19.084;2023-04-25T23:16:34;14.90;;;4.07;;
68108;SDS011;54893;49.864;19.084;2023-04-25T23:21:34;15.10;;;4.10;;
68108;SDS011;54893;49.864;19.084;2023-04-25T23:26:35;9.50;;;3.90;;
68108;SDS011;54893;49.864;19.084;2023-04-25T23:31:35;17.57;;;5.47;;
68108;SDS011;54893;49.864;19.084;2023-04-25T23:36:36;16.50;;;5.43;;
68108;SDS011;54893;49.864;19.084;2023-04-25T23:41:36;16.07;;;5.37;;
68108;SDS011;54893;49.864;19.084;2023-04-25T23:46:36;12.87;;;5.57;;
68108;SDS011;54893;49.864;19.084;2023-04-25T23:51:37;10.00;;;3.47;;
68108;SDS011;54893;49.864;19.084;2023-04-25T23:56:37;16.13;;;5.43;;
